sensor_id;sensor_type;location;lat;lon;timestamp;pressure;altitude;pressure_sealevel;temperature;humidity
16738;BME280;17906;47.684;10.806;2022-11-02T00:01:51;93896.56;;;3.01;96.13
16738;BME280;17906;47.684;10.806;2022-11-02T00:04:18;93899.44;;;3.00;96.29
16738;BME280;17906;47.684;10.806;2022-11-02T00:06:45;93894.00;;;2.93;96.27
16738;BME280;17906;47.684;10.806;2022-11-02T00:09:13;93887.16;;;2.90;97.88
16738;BME280;17906;47.684;10.806;2022-11-02T00:11:39;93897.03;;;2.90;99.10
16738;BME280;17906;47.684;10.806;2022-11-02T00:14:06;93874.78;;;2.89;98.41
16738;BME280;17906;47.684;10.806;2022-11-02T00:16:35;93889.94;;;2.97;98.65
16738;BME280;17906;47.684;10.806;2022-11-02T00:19:02;93884.75;;;3.10;97.16
16738;BME280;17906;47.684;10.806;2022-11-02T00:21:29;93885.13;;;3.07;95.65
16738;BME280;17906;47.684;10.806;2022-11-02T00:23:56;93889.94;;;2.97;95.28
16738;BME280;17906;47.684;10.806;2022-11-02T00:26:26;93885.50;;;2.89;96.71
16738;BME280;17906;47.684;10.806;2022-11-02T00:28:53;93898.44;;;2.86;96.91
16738;BME280;17906;47.684;10.806;2022-11-02T00:31:20;93892.91;;;2.87;97.13
16738;BME280;17906;47.684;10.806;2022-11-02T00:33:47;93904.81;;;2.70;98.61
16738;BME280;17906;47.684;10.806;2022-11-02T00:36:13;93893.44;;;2.68;97.45
16738;BME280;17906;47.684;10.806;2022-11-02T00:38:41;93898.53;;;2.63;98.08
16738;BME280;17906;47.684;10.806;2022-11-02T00:41:08;93901.91;;;2.42;96.15
16738;BME280;17906;47.684;10.806;2022-11-02T00:43:36;93901.09;;;2.42;96.05
16738;BME280;17906;47.684;10.806;2022-11-02T00:46:03;93901.75;;;2.44;96.41
16738;BME280;17906;47.684;10.806;2022-11-02T00:48:29;93904.03;;;2.32;97.42
16738;BME280;17906;47.684;10.806;2022-11-02T00:50:56;93907.31;;;2.19;98.29
16738;BME280;17906;47.684;10.806;2022-11-02T00:53:22;93903.06;;;2.25;98.22
16738;BME280;17906;47.684;10.806;2022-11-02T00:55:49;93907.06;;;2.29;99.80
16738;BME280;17906;47.684;10.806;2022-11-02T00:58:18;93895.81;;;2.33;99.53
16738;BME280;17906;47.684;10.806;2022-11-02T01:00:46;93897.66;;;2.18;100.00
16738;BME280;17906;47.684;10.806;2022-11-02T01:03:13;93902.69;;;2.13;100.00
16738;BME280;17906;47.684;10.806;2022-11-02T01:05:39;93881.69;;;2.25;100.00
16738;BME280;17906;47.684;10.806;2022-11-02T01:08:07;93887.34;;;2.30;99.03
16738;BME280;17906;47.684;10.806;2022-11-02T01:10:33;93893.50;;;2.30;97.00
16738;BME280;17906;47.684;10.806;2022-11-02T01:13:00;93897.47;;;2.20;96.41
16738;BME280;17906;47.684;10.806;2022-11-02T01:15:27;93894.47;;;2.15;96.77
16738;BME280;17906;47.684;10.806;2022-11-02T01:17:55;93896.03;;;2.09;97.88
16738;BME280;17906;47.684;10.806;2022-11-02T01:20:22;93898.34;;;2.12;97.47
16738;BME280;17906;47.684;10.806;2022-11-02T01:22:49;93904.00;;;2.17;97.23
16738;BME280;17906;47.684;10.806;2022-11-02T01:25:16;93908.63;;;2.23;96.91
16738;BME280;17906;47.684;10.806;2022-11-02T01:27:43;93897.28;;;2.21;97.96
16738;BME280;17906;47.684;10.806;2022-11-02T01:30:11;93903.91;;;2.25;98.01
16738;BME280;17906;47.684;10.806;2022-11-02T01:32:37;93921.66;;;2.03;97.21
16738;BME280;17906;47.684;10.806;2022-11-02T01:35:06;93916.22;;;1.97;96.08
16738;BME280;17906;47.684;10.806;2022-11-02T01:37:33;93908.31;;;1.58;97.83
16738;BME280;17906;47.684;10.806;2022-11-02T01:40:00;93906.81;;;1.55;98.98
16738;BME280;17906;47.684;10.806;2022-11-02T01:42:27;93907.38;;;1.51;99.23
16738;BME280;17906;47.684;10.806;2022-11-02T01:44:53;93904.00;;;1.48;98.90
16738;BME280;17906;47.684;10.806;2022-11-02T01:47:23;93909.13;;;1.58;100.00
16738;BME280;17906;47.684;10.806;2022-11-02T01:49:53;93905.03;;;1.70;100.00
16738;BME280;17906;47.684;10.806;2022-11-02T01:52:25;93901.72;;;1.68;100.00
16738;BME280;17906;47.684;10.806;2022-11-02T01:54:56;93908.66;;;1.77;100.00
16738;BME280;17906;47.684;10.806;2022-11-02T01:57:24;93916.56;;;1.71;100.00
16738;BME280;17906;47.684;10.806;2022-11-02T02:00:00;93917.56;;;1.70;100.00
16738;BME280;17906;47.684;10.806;2022-11-02T02:02:29;93909.22;;;1.73;100.00
16738;BME280;17906;47.684;10.806;2022-11-02T02:05:00;93925.28;;;1.88;100.00
16738;BME280;17906;47.684;10.806;2022-11-02T02:07:30;93919.81;;;2.04;100.00
16738;BME280;17906;47.684;10.806;2022-11-02T02:09:58;93927.50;;;2.07;100.00
16738;BME280;17906;47.684;10.806;2022-11-02T02:12:26;93920.16;;;2.24;100.00
16738;BME280;17906;47.684;10.806;2022-11-02T02:14:54;93919.81;;;2.27;100.00
16738;BME280;17906;47.684;10.806;2022-11-02T02:17:27;93926.25;;;2.32;100.00
16738;BME280;17906;47.684;10.806;2022-11-02T02:19:59;93916.75;;;2.30;100.00
16738;BME280;17906;47.684;10.806;2022-11-02T02:22:45;93924.47;;;2.48;100.00
16738;BME280;17906;47.684;10.806;2022-11-02T02:28:30;93920.59;;;2.65;100.00
16738;BME280;17906;47.684;10.806;2022-11-02T02:31:06;93924.47;;;2.77;100.00
16738;BME280;17906;47.684;10.806;2022-11-02T02:33:39;93927.50;;;2.89;100.00
16738;BME280;17906;47.684;10.806;2022-11-02T02:36:12;93927.16;;;3.07;100.00
16738;BME280;17906;47.684;10.806;2022-11-02T02:38:45;93925.41;;;3.14;100.00
16738;BME280;17906;47.684;10.806;2022-11-02T02:41:17;93932.88;;;3.18;100.00
16738;BME280;17906;47.684;10.806;2022-11-02T02:43:49;93931.19;;;3.32;100.00
16738;BME280;17906;47.684;10.806;2022-11-02T02:46:19;93934.34;;;3.36;100.00
16738;BME280;17906;47.684;10.806;2022-11-02T02:48:47;93934.09;;;3.52;100.00
16738;BME280;17906;47.684;10.806;2022-11-02T02:51:19;93945.94;;;3.58;100.00
16738;BME280;17906;47.684;10.806;2022-11-02T02:53:50;93943.91;;;3.60;100.00
16738;BME280;17906;47.684;10.806;2022-11-02T02:56:21;93937.25;;;3.70;100.00
16738;BME280;17906;47.684;10.806;2022-11-02T02:58:54;93941.00;;;3.76;100.00
16738;BME280;17906;47.684;10.806;2022-11-02T03:01:24;93939.22;;;3.83;100.00
16738;BME280;17906;47.684;10.806;2022-11-02T03:03:52;93946.06;;;3.86;100.00
16738;BME280;17906;47.684;10.806;2022-11-02T03:06:22;93949.06;;;3.97;100.00
16738;BME280;17906;47.684;10.806;2022-11-02T03:09:01;93955.59;;;4.09;100.00
16738;BME280;17906;47.684;10.806;2022-11-02T03:11:30;93951.56;;;4.20;100.00
16738;BME280;17906;47.684;10.806;2022-11-02T03:14:15;93955.16;;;4.27;100.00
16738;BME280;17906;47.684;10.806;2022-11-02T03:16:59;93958.94;;;4.33;100.00
16738;BME280;17906;47.684;10.806;2022-11-02T03:19:34;93952.34;;;4.35;100.00
16738;BME280;17906;47.684;10.806;2022-11-02T03:22:06;93961.22;;;4.36;100.00
16738;BME280;17906;47.684;10.806;2022-11-02T03:24:43;93964.13;;;4.41;100.00
16738;BME280;17906;47.684;10.806;2022-11-02T03:27:15;93965.78;;;4.42;100.00
16738;BME280;17906;47.684;10.806;2022-11-02T03:29:50;93963.38;;;4.47;100.00
16738;BME280;17906;47.684;10.806;2022-11-02T03:32:21;93969.38;;;4.49;100.00
16738;BME280;17906;47.684;10.806;2022-11-02T03:34:54;93964.09;;;4.56;100.00
16738;BME280;17906;47.684;10.806;2022-11-02T03:37:26;93967.13;;;4.53;100.00
16738;BME280;17906;47.684;10.806;2022-11-02T03:39:57;93968.66;;;4.62;100.00
16738;BME280;17906;47.684;10.806;2022-11-02T03:42:29;93975.97;;;4.75;100.00
16738;BME280;17906;47.684;10.806;2022-11-02T03:45:03;93971.06;;;4.78;100.00
16738;BME280;17906;47.684;10.806;2022-11-02T03:47:32;93974.19;;;4.82;100.00
16738;BME280;17906;47.684;10.806;2022-11-02T03:50:00;93981.72;;;4.93;100.00
16738;BME280;17906;47.684;10.806;2022-11-02T03:52:31;93984.69;;;5.05;100.00
16738;BME280;17906;47.684;10.806;2022-11-02T03:55:04;93985.25;;;5.28;100.00
16738;BME280;17906;47.684;10.806;2022-11-02T03:57:34;93987.22;;;5.47;100.00
16738;BME280;17906;47.684;10.806;2022-11-02T04:00:07;93976.59;;;5.74;100.00
16738;BME280;17906;47.684;10.806;2022-11-02T04:02:35;93984.09;;;5.92;100.00
16738;BME280;17906;47.684;10.806;2022-11-02T04:05:03;93984.91;;;5.79;100.00
16738;BME280;17906;47.684;10.806;2022-11-02T04:07:32;93978.06;;;5.76;100.00
16738;BME280;17906;47.684;10.806;2022-11-02T04:10:20;93978.69;;;5.78;100.00
16738;BME280;17906;47.684;10.806;2022-11-02T04:12:47;93989.03;;;5.75;100.00
16738;BME280;17906;47.684;10.806;2022-11-02T04:15:32;93981.16;;;5.73;100.00
16738;BME280;17906;47.684;10.806;2022-11-02T04:17:59;93992.09;;;5.65;100.00
16738;BME280;17906;47.684;10.806;2022-11-02T04:20:48;93983.59;;;5.68;100.00
16738;BME280;17906;47.684;10.806;2022-11-02T04:23:15;93976.78;;;5.72;100.00
16738;BME280;17906;47.684;10.806;2022-11-02T04:25:59;93976.00;;;5.78;100.00
16738;BME280;17906;47.684;10.806;2022-11-02T04:28:26;93969.81;;;5.84;100.00
16738;BME280;17906;47.684;10.806;2022-11-02T04:30:56;93963.81;;;5.89;100.00
16738;BME280;17906;47.684;10.806;2022-11-02T04:33:23;93968.81;;;5.99;100.00
16738;BME280;17906;47.684;10.806;2022-11-02T04:35:59;93960.59;;;6.13;100.00
16738;BME280;17906;47.684;10.806;2022-11-02T04:38:27;93957.31;;;6.25;100.00
16738;BME280;17906;47.684;10.806;2022-11-02T04:41:05;93960.25;;;6.30;100.00
16738;BME280;17906;47.684;10.806;2022-11-02T04:43:49;93958.78;;;6.34;100.00
16738;BME280;17906;47.684;10.806;2022-11-02T04:46:18;93972.47;;;6.32;100.00
16738;BME280;17906;47.684;10.806;2022-11-02T04:48:45;93960.63;;;6.27;100.00
16738;BME280;17906;47.684;10.806;2022-11-02T04:51:11;93956.50;;;6.31;100.00
16738;BME280;17906;47.684;10.806;2022-11-02T04:53:38;93961.06;;;6.30;100.00
16738;BME280;17906;47.684;10.806;2022-11-02T04:56:05;93965.00;;;6.34;100.00
16738;BME280;17906;47.684;10.806;2022-11-02T04:58:32;93954.44;;;6.33;100.00
16738;BME280;17906;47.684;10.806;2022-11-02T05:01:03;93954.47;;;6.39;100.00
16738;BME280;17906;47.684;10.806;2022-11-02T05:03:31;93957.16;;;6.46;100.00
16738;BME280;17906;47.684;10.806;2022-11-02T05:05:58;93948.03;;;6.54;100.00
16738;BME280;17906;47.684;10.806;2022-11-02T05:08:24;93953.00;;;6.57;100.00
16738;BME280;17906;47.684;10.806;2022-11-02T05:10:53;93951.59;;;6.61;100.00
16738;BME280;17906;47.684;10.806;2022-11-02T05:13:20;93949.28;;;6.64;100.00
16738;BME280;17906;47.684;10.806;2022-11-02T05:15:46;93944.31;;;6.61;100.00
16738;BME280;17906;47.684;10.806;2022-11-02T05:18:13;93943.47;;;6.67;100.00
16738;BME280;17906;47.684;10.806;2022-11-02T05:20:41;93948.44;;;6.70;100.00
16738;BME280;17906;47.684;10.806;2022-11-02T05:23:08;93941.84;;;6.73;100.00
16738;BME280;17906;47.684;10.806;2022-11-02T05:25:34;93941.84;;;6.73;100.00
16738;BME280;17906;47.684;10.806;2022-11-02T05:28:01;93947.00;;;6.68;100.00
16738;BME280;17906;47.684;10.806;2022-11-02T05:30:28;93934.78;;;6.65;100.00
16738;BME280;17906;47.684;10.806;2022-11-02T05:32:55;93938.31;;;6.66;100.00
16738;BME280;17906;47.684;10.806;2022-11-02T05:35:21;93945.97;;;6.69;100.00
16738;BME280;17906;47.684;10.806;2022-11-02T05:37:49;93941.22;;;6.71;100.00
16738;BME280;17906;47.684;10.806;2022-11-02T05:40:16;93937.88;;;6.69;100.00
16738;BME280;17906;47.684;10.806;2022-11-02T05:42:43;93937.88;;;6.69;100.00
16738;BME280;17906;47.684;10.806;2022-11-02T05:45:10;93934.38;;;6.68;100.00
16738;BME280;17906;47.684;10.806;2022-11-02T05:47:36;93928.97;;;6.68;100.00
16738;BME280;17906;47.684;10.806;2022-11-02T05:50:04;93936.66;;;6.72;100.00
16738;BME280;17906;47.684;10.806;2022-11-02T05:52:30;93937.88;;;6.69;100.00
16738;BME280;17906;47.684;10.806;2022-11-02T05:54:58;93943.06;;;6.64;100.00
16738;BME280;17906;47.684;10.806;2022-11-02T05:57:25;93939.31;;;6.58;100.00
16738;BME280;17906;47.684;10.806;2022-11-02T05:59:52;93944.94;;;6.57;100.00
16738;BME280;17906;47.684;10.806;2022-11-02T06:02:19;93947.19;;;6.47;100.00
16738;BME280;17906;47.684;10.806;2022-11-02T06:04:45;93954.84;;;6.36;100.00
16738;BME280;17906;47.684;10.806;2022-11-02T06:07:12;93947.41;;;6.38;100.00
16738;BME280;17906;47.684;10.806;2022-11-02T06:09:39;93946.34;;;6.33;100.00
16738;BME280;17906;47.684;10.806;2022-11-02T06:12:07;93950.66;;;6.14;100.00
16738;BME280;17906;47.684;10.806;2022-11-02T06:14:34;93945.91;;;6.09;100.00
16738;BME280;17906;47.684;10.806;2022-11-02T06:17:00;93958.94;;;6.06;100.00
16738;BME280;17906;47.684;10.806;2022-11-02T06:19:27;93964.19;;;5.79;100.00
16738;BME280;17906;47.684;10.806;2022-11-02T06:21:53;93974.34;;;5.77;100.00
16738;BME280;17906;47.684;10.806;2022-11-02T06:24:20;93980.50;;;5.65;98.83
16738;BME280;17906;47.684;10.806;2022-11-02T06:26:46;93986.09;;;5.63;97.91
16738;BME280;17906;47.684;10.806;2022-11-02T06:29:15;93991.63;;;5.55;98.39
16738;BME280;17906;47.684;10.806;2022-11-02T06:31:41;93994.31;;;5.55;98.49
16738;BME280;17906;47.684;10.806;2022-11-02T06:34:08;93996.56;;;5.51;98.98
16738;BME280;17906;47.684;10.806;2022-11-02T06:36:34;93994.25;;;5.48;99.29
16738;BME280;17906;47.684;10.806;2022-11-02T06:39:01;93995.28;;;5.41;99.50
16738;BME280;17906;47.684;10.806;2022-11-02T06:41:28;94003.84;;;5.30;100.00
16738;BME280;17906;47.684;10.806;2022-11-02T06:43:55;94001.50;;;5.13;99.44
16738;BME280;17906;47.684;10.806;2022-11-02T06:46:23;94003.84;;;4.95;99.56
16738;BME280;17906;47.684;10.806;2022-11-02T06:48:49;94009.41;;;4.93;98.73
16738;BME280;17906;47.684;10.806;2022-11-02T06:51:16;94008.78;;;4.91;98.19
16738;BME280;17906;47.684;10.806;2022-11-02T06:53:43;94024.97;;;4.98;99.96
16738;BME280;17906;47.684;10.806;2022-11-02T06:56:09;94021.69;;;5.03;100.00
16738;BME280;17906;47.684;10.806;2022-11-02T06:58:37;94013.50;;;5.17;100.00
16738;BME280;17906;47.684;10.806;2022-11-02T07:01:05;94016.13;;;5.39;100.00
16738;BME280;17906;47.684;10.806;2022-11-02T07:03:34;94033.97;;;5.46;99.01
16738;BME280;17906;47.684;10.806;2022-11-02T07:06:01;94032.78;;;5.55;98.48
16738;BME280;17906;47.684;10.806;2022-11-02T07:08:28;94038.19;;;5.62;98.27
16738;BME280;17906;47.684;10.806;2022-11-02T07:10:54;94039.06;;;5.69;98.74
16738;BME280;17906;47.684;10.806;2022-11-02T07:13:21;94044.13;;;5.86;100.00
16738;BME280;17906;47.684;10.806;2022-11-02T07:15:50;94046.31;;;6.10;99.37
16738;BME280;17906;47.684;10.806;2022-11-02T07:18:18;94041.03;;;6.36;98.54
16738;BME280;17906;47.684;10.806;2022-11-02T07:20:46;94038.00;;;6.73;98.36
16738;BME280;17906;47.684;10.806;2022-11-02T07:23:12;94040.31;;;7.09;96.30
16738;BME280;17906;47.684;10.806;2022-11-02T07:25:39;94039.06;;;7.31;96.93
16738;BME280;17906;47.684;10.806;2022-11-02T07:28:06;94029.47;;;7.62;95.99
16738;BME280;17906;47.684;10.806;2022-11-02T07:30:33;94037.78;;;7.60;96.90
16738;BME280;17906;47.684;10.806;2022-11-02T07:33:00;94042.09;;;7.94;97.09
16738;BME280;17906;47.684;10.806;2022-11-02T07:35:27;94052.81;;;8.14;96.42
16738;BME280;17906;47.684;10.806;2022-11-02T07:37:56;94055.22;;;8.35;95.33
16738;BME280;17906;47.684;10.806;2022-11-02T07:40:23;94052.75;;;8.34;96.66
16738;BME280;17906;47.684;10.806;2022-11-02T07:42:49;94053.59;;;8.21;98.07
16738;BME280;17906;47.684;10.806;2022-11-02T07:45:18;94044.88;;;8.26;98.76
16738;BME280;17906;47.684;10.806;2022-11-02T07:47:45;94053.75;;;8.39;97.92
16738;BME280;17906;47.684;10.806;2022-11-02T07:50:14;94053.91;;;8.51;97.96
16738;BME280;17906;47.684;10.806;2022-11-02T07:52:45;94055.25;;;9.05;97.88
16738;BME280;17906;47.684;10.806;2022-11-02T07:55:14;94055.66;;;10.02;91.70
16738;BME280;17906;47.684;10.806;2022-11-02T07:57:41;94037.47;;;10.75;85.46
16738;BME280;17906;47.684;10.806;2022-11-02T08:00:09;94040.06;;;11.66;82.72
16738;BME280;17906;47.684;10.806;2022-11-02T08:02:36;94044.75;;;12.40;77.12
16738;BME280;17906;47.684;10.806;2022-11-02T08:05:03;94037.56;;;12.74;75.57
16738;BME280;17906;47.684;10.806;2022-11-02T08:07:29;94037.00;;;13.01;72.82
16738;BME280;17906;47.684;10.806;2022-11-02T08:09:56;94054.50;;;12.65;74.45
16738;BME280;17906;47.684;10.806;2022-11-02T08:12:24;94044.31;;;12.20;76.78
16738;BME280;17906;47.684;10.806;2022-11-02T08:14:51;94039.69;;;11.97;77.53
16738;BME280;17906;47.684;10.806;2022-11-02T08:17:17;94051.41;;;11.74;78.01
16738;BME280;17906;47.684;10.806;2022-11-02T08:19:44;94049.34;;;11.46;80.47
16738;BME280;17906;47.684;10.806;2022-11-02T08:22:10;94051.47;;;11.44;79.69
16738;BME280;17906;47.684;10.806;2022-11-02T08:24:37;94054.81;;;11.70;76.64
16738;BME280;17906;47.684;10.806;2022-11-02T08:27:04;94050.09;;;12.24;76.24
16738;BME280;17906;47.684;10.806;2022-11-02T08:29:32;94052.66;;;12.42;74.96
16738;BME280;17906;47.684;10.806;2022-11-02T08:31:59;94047.38;;;12.35;75.75
16738;BME280;17906;47.684;10.806;2022-11-02T08:34:26;94047.84;;;12.32;72.92
16738;BME280;17906;47.684;10.806;2022-11-02T08:36:52;94052.69;;;12.07;72.34
16738;BME280;17906;47.684;10.806;2022-11-02T08:39:19;94050.81;;;11.84;72.57
16738;BME280;17906;47.684;10.806;2022-11-02T08:41:45;94053.03;;;11.63;73.22
16738;BME280;17906;47.684;10.806;2022-11-02T08:44:12;94057.50;;;11.46;75.96
16738;BME280;17906;47.684;10.806;2022-11-02T08:46:40;94048.91;;;11.49;76.30
16738;BME280;17906;47.684;10.806;2022-11-02T08:49:07;94053.25;;;11.39;76.53
16738;BME280;17906;47.684;10.806;2022-11-02T08:51:35;94062.06;;;11.22;77.24
16738;BME280;17906;47.684;10.806;2022-11-02T08:54:01;94065.56;;;11.11;79.89
16738;BME280;17906;47.684;10.806;2022-11-02T08:56:28;94068.94;;;10.95;79.92
16738;BME280;17906;47.684;10.806;2022-11-02T08:58:55;94073.22;;;10.84;81.88
16738;BME280;17906;47.684;10.806;2022-11-02T09:01:21;94068.25;;;10.81;80.65
16738;BME280;17906;47.684;10.806;2022-11-02T09:03:49;94079.25;;;10.86;78.07
16738;BME280;17906;47.684;10.806;2022-11-02T09:06:16;94075.88;;;10.72;77.21
16738;BME280;17906;47.684;10.806;2022-11-02T09:08:43;94067.06;;;10.59;76.54
16738;BME280;17906;47.684;10.806;2022-11-02T09:11:09;94078.63;;;10.54;78.60
16738;BME280;17906;47.684;10.806;2022-11-02T09:13:37;94075.63;;;10.44;77.84
16738;BME280;17906;47.684;10.806;2022-11-02T09:16:04;94069.81;;;10.40;78.05
16738;BME280;17906;47.684;10.806;2022-11-02T09:18:31;94079.91;;;10.33;79.14
16738;BME280;17906;47.684;10.806;2022-11-02T09:21:02;94080.88;;;10.39;79.73
16738;BME280;17906;47.684;10.806;2022-11-02T09:23:29;94086.22;;;10.45;78.80
16738;BME280;17906;47.684;10.806;2022-11-02T09:25:56;94089.69;;;10.34;79.55
16738;BME280;17906;47.684;10.806;2022-11-02T09:28:23;94094.66;;;10.37;79.22
16738;BME280;17906;47.684;10.806;2022-11-02T09:30:50;94091.72;;;10.39;78.33
16738;BME280;17906;47.684;10.806;2022-11-02T09:33:16;94089.97;;;10.26;79.52
16738;BME280;17906;47.684;10.806;2022-11-02T09:35:45;94096.81;;;10.29;75.94
16738;BME280;17906;47.684;10.806;2022-11-02T09:38:14;94098.94;;;10.27;78.11
16738;BME280;17906;47.684;10.806;2022-11-02T09:40:45;94098.72;;;10.28;77.00
16738;BME280;17906;47.684;10.806;2022-11-02T09:43:20;94096.69;;;10.24;76.29
16738;BME280;17906;47.684;10.806;2022-11-02T09:45:55;94097.22;;;10.14;75.39
16738;BME280;17906;47.684;10.806;2022-11-02T09:48:26;94107.34;;;10.00;77.16
16738;BME280;17906;47.684;10.806;2022-11-02T09:50:57;94102.81;;;9.94;76.12
16738;BME280;17906;47.684;10.806;2022-11-02T09:53:34;94112.22;;;9.92;77.59
16738;BME280;17906;47.684;10.806;2022-11-02T09:56:03;94107.25;;;9.88;77.32
16738;BME280;17906;47.684;10.806;2022-11-02T09:58:35;94113.72;;;9.87;77.15
16738;BME280;17906;47.684;10.806;2022-11-02T10:01:10;94114.72;;;9.93;76.36
16738;BME280;17906;47.684;10.806;2022-11-02T10:03:51;94112.59;;;9.95;77.89
16738;BME280;17906;47.684;10.806;2022-11-02T10:06:24;94114.59;;;9.81;77.13
16738;BME280;17906;47.684;10.806;2022-11-02T10:09:00;94118.53;;;9.85;77.51
16738;BME280;17906;47.684;10.806;2022-11-02T10:11:41;94112.44;;;9.90;77.23
16738;BME280;17906;47.684;10.806;2022-11-02T10:14:14;94118.09;;;9.88;76.95
16738;BME280;17906;47.684;10.806;2022-11-02T10:16:46;94115.81;;;9.85;77.50
16738;BME280;17906;47.684;10.806;2022-11-02T10:19:18;94114.97;;;9.85;77.99
16738;BME280;17906;47.684;10.806;2022-11-02T10:21:47;94117.69;;;9.85;77.66
16738;BME280;17906;47.684;10.806;2022-11-02T10:24:22;94114.34;;;9.89;77.38
16738;BME280;17906;47.684;10.806;2022-11-02T10:26:52;94108.22;;;9.94;75.79
16738;BME280;17906;47.684;10.806;2022-11-02T10:29:32;94108.22;;;9.94;77.23
16738;BME280;17906;47.684;10.806;2022-11-02T10:32:00;94113.28;;;9.91;79.22
16738;BME280;17906;47.684;10.806;2022-11-02T10:34:28;94106.81;;;9.92;77.11
16738;BME280;17906;47.684;10.806;2022-11-02T10:37:14;94104.56;;;9.88;76.12
16738;BME280;17906;47.684;10.806;2022-11-02T10:39:54;94105.84;;;9.86;75.68
16738;BME280;17906;47.684;10.806;2022-11-02T10:42:35;94104.78;;;9.87;76.24
16738;BME280;17906;47.684;10.806;2022-11-02T10:45:20;94098.22;;;9.76;75.91
16738;BME280;17906;47.684;10.806;2022-11-02T10:48:00;94097.59;;;9.74;73.96
16738;BME280;17906;47.684;10.806;2022-11-02T10:50:35;94097.81;;;9.73;75.06
16738;BME280;17906;47.684;10.806;2022-11-02T10:53:11;94089.91;;;9.71;75.69
16738;BME280;17906;47.684;10.806;2022-11-02T10:55:48;94100.38;;;9.68;76.29
16738;BME280;17906;47.684;10.806;2022-11-02T10:58:19;94099.59;;;9.60;75.41
16738;BME280;17906;47.684;10.806;2022-11-02T11:00:47;94091.53;;;9.54;76.98
16738;BME280;17906;47.684;10.806;2022-11-02T11:03:16;94086.72;;;9.56;76.63
16738;BME280;17906;47.684;10.806;2022-11-02T11:05:57;94090.50;;;9.55;77.93
16738;BME280;17906;47.684;10.806;2022-11-02T11:08:30;94092.13;;;9.56;77.64
16738;BME280;17906;47.684;10.806;2022-11-02T11:11:17;94087.88;;;9.67;77.80
16738;BME280;17906;47.684;10.806;2022-11-02T11:13:46;94083.56;;;9.59;76.61
16738;BME280;17906;47.684;10.806;2022-11-02T11:16:29;94090.41;;;9.62;76.15
16738;BME280;17906;47.684;10.806;2022-11-02T11:18:57;94090.41;;;9.62;74.08
16738;BME280;17906;47.684;10.806;2022-11-02T11:21:34;94085.09;;;9.73;75.00
16738;BME280;17906;47.684;10.806;2022-11-02T11:24:19;94078.09;;;9.66;74.85
16738;BME280;17906;47.684;10.806;2022-11-02T11:26:59;94084.56;;;9.65;75.88
16738;BME280;17906;47.684;10.806;2022-11-02T11:29:29;94077.88;;;9.67;76.31
16738;BME280;17906;47.684;10.806;2022-11-02T11:31:57;94079.84;;;9.78;76.16
16738;BME280;17906;47.684;10.806;2022-11-02T11:34:26;94081.59;;;9.91;72.75
16738;BME280;17906;47.684;10.806;2022-11-02T11:37:03;94067.97;;;9.79;73.71
16738;BME280;17906;47.684;10.806;2022-11-02T11:39:31;94074.13;;;9.68;73.09
16738;BME280;17906;47.684;10.806;2022-11-02T11:42:01;94079.22;;;9.58;71.66
16738;BME280;17906;47.684;10.806;2022-11-02T11:44:30;94075.31;;;9.54;73.53
16738;BME280;17906;47.684;10.806;2022-11-02T11:46:58;94072.75;;;9.59;73.24
16738;BME280;17906;47.684;10.806;2022-11-02T11:49:28;94077.47;;;9.64;73.16
16738;BME280;17906;47.684;10.806;2022-11-02T11:51:56;94074.28;;;9.73;71.56
16738;BME280;17906;47.684;10.806;2022-11-02T11:54:24;94074.59;;;9.83;70.67
16738;BME280;17906;47.684;10.806;2022-11-02T11:56:53;94072.66;;;9.91;71.15
16738;BME280;17906;47.684;10.806;2022-11-02T11:59:27;94066.03;;;9.86;71.44
16738;BME280;17906;47.684;10.806;2022-11-02T12:01:57;94075.66;;;9.82;73.77
16738;BME280;17906;47.684;10.806;2022-11-02T12:04:32;94070.31;;;9.94;73.59
16738;BME280;17906;47.684;10.806;2022-11-02T12:07:13;94067.59;;;9.94;71.82
16738;BME280;17906;47.684;10.806;2022-11-02T12:09:47;94074.09;;;9.93;72.48
16738;BME280;17906;47.684;10.806;2022-11-02T12:12:21;94068.94;;;9.85;72.81
16738;BME280;17906;47.684;10.806;2022-11-02T12:14:56;94063.94;;;9.88;73.16
16738;BME280;17906;47.684;10.806;2022-11-02T12:17:46;94062.94;;;9.83;72.00
16738;BME280;17906;47.684;10.806;2022-11-02T12:20:39;94068.19;;;9.78;73.62
16738;BME280;17906;47.684;10.806;2022-11-02T12:23:20;94060.31;;;9.76;73.42
16738;BME280;17906;47.684;10.806;2022-11-02T12:25:55;94054.16;;;9.87;72.53
16738;BME280;17906;47.684;10.806;2022-11-02T12:28:34;94062.09;;;9.82;72.68
16738;BME280;17906;47.684;10.806;2022-11-02T12:31:14;94064.44;;;9.79;72.40
16738;BME280;17906;47.684;10.806;2022-11-02T12:33:54;94065.50;;;9.78;73.34
16738;BME280;17906;47.684;10.806;2022-11-02T12:36:38;94055.78;;;9.70;71.80
16738;BME280;17906;47.684;10.806;2022-11-02T12:39:12;94051.03;;;9.66;72.75
16738;BME280;17906;47.684;10.806;2022-11-02T12:41:54;94058.25;;;9.72;70.14
16738;BME280;17906;47.684;10.806;2022-11-02T12:44:42;94051.19;;;9.71;72.10
16738;BME280;17906;47.684;10.806;2022-11-02T12:47:21;94049.25;;;9.78;71.66
16738;BME280;17906;47.684;10.806;2022-11-02T12:50:00;94044.81;;;9.83;71.27
16738;BME280;17906;47.684;10.806;2022-11-02T12:52:36;94047.50;;;9.83;73.37
16738;BME280;17906;47.684;10.806;2022-11-02T12:55:12;94041.72;;;9.80;72.52
16738;BME280;17906;47.684;10.806;2022-11-02T12:57:41;94041.03;;;9.84;73.67
16738;BME280;17906;47.684;10.806;2022-11-02T13:00:16;94042.31;;;9.82;70.88
16738;BME280;17906;47.684;10.806;2022-11-02T13:02:52;94032.91;;;9.84;70.47
16738;BME280;17906;47.684;10.806;2022-11-02T13:05:23;94032.91;;;9.84;70.08
16738;BME280;17906;47.684;10.806;2022-11-02T13:07:57;94033.59;;;9.80;70.61
16738;BME280;17906;47.684;10.806;2022-11-02T13:10:29;94019.91;;;9.75;70.67
16738;BME280;17906;47.684;10.806;2022-11-02T13:12:58;94023.22;;;9.77;69.99
16738;BME280;17906;47.684;10.806;2022-11-02T13:15:28;94014.34;;;9.88;69.88